Time;durP1;ratioP1;P1;durP2;ratioP2;P2;SDS_P1;SDS_P2;PMS_P1;PMS_P2;Temp;Humidity;BMP_temperature;BMP_pressure;BME280_temperature;BME280_humidity;BME280_pressure;Samples;Min_cycle;Max_cycle;Signal;HPM_P1;HPM_P2
2023/06/12 00:01:03;;;;;;;3.27;2.37;;;;;;;;;;5897486;28;10000869;-67
2023/06/12 00:04:04;;;;;;;3.28;2.97;;;;;;;;;;6252166;28;20020;-67
2023/06/12 00:07:04;;;;;;;3.30;3.00;;;;;;;;;;6257195;28;20032;-67
2023/06/12 00:10:05;;;;;;;3.95;3.13;;;;;;;;;;6245609;28;20116;-68
2023/06/12 00:13:06;;;;;;;4.93;3.43;;;;;;;;;;6246069;28;20107;-67
2023/06/12 00:16:07;;;;;;;3.95;3.15;;;;;;;;;;6243775;28;20029;-67
2023/06/12 00:19:07;;;;;;;3.37;3.17;;;;;;;;;;6253267;28;20176;-67
2023/06/12 00:22:07;;;;;;;3.40;3.10;;;;;;;;;;6247263;28;20602;-67
2023/06/12 00:25:08;;;;;;;3.10;2.80;;;;;;;;;;6248220;28;20013;-67
2023/06/12 00:28:08;;;;;;;4.03;3.00;;;;;;;;;;6246414;28;20018;-68
2023/06/12 00:31:08;;;;;;;4.00;3.00;;;;;;;;;;6249006;28;20016;-67
2023/06/12 00:34:08;;;;;;;3.10;2.80;;;;;;;;;;6250848;28;20063;-67
2023/06/12 00:37:09;;;;;;;3.07;2.53;;;;;;;;;;6252222;28;20082;-67
2023/06/12 00:40:10;;;;;;;4.27;3.30;;;;;;;;;;6257728;28;20112;-67
2023/06/12 00:43:10;;;;;;;3.00;2.75;;;;;;;;;;6260431;28;20064;-67
2023/06/12 00:46:11;;;;;;;3.63;3.13;;;;;;;;;;6253944;28;20024;-69
2023/06/12 00:49:11;;;;;;;4.10;3.15;;;;;;;;;;6255701;28;20572;-68
2023/06/12 00:52:12;;;;;;;3.30;2.80;;;;;;;;;;6250468;28;20336;-68
2023/06/12 00:55:14;;;;;;;3.78;3.05;;;;;;;;;;6260222;28;20096;-67
2023/06/12 00:58:15;;;;;;;4.55;3.05;;;;;;;;;;6255476;28;20082;-68
2023/06/12 01:01:15;;;;;;;3.50;3.13;;;;;;;;;;6255724;28;20281;-68
2023/06/12 01:04:16;;;;;;;3.43;3.10;;;;;;;;;;6259219;28;20025;-67
2023/06/12 01:07:26;;;;;;;3.53;3.22;;;;;;;;;;6254176;28;20362;-67
2023/06/12 01:10:36;;;;;;;3.00;2.70;;;;;;;;;;6256010;28;20039;-65
2023/06/12 01:13:37;;;;;;;3.67;2.83;;;;;;;;;;6254305;28;20021;-68
2023/06/12 01:16:40;;;;;;;3.83;2.92;;;;;;;;;;6258794;28;20021;-67
2023/06/12 01:19:41;;;;;;;3.35;2.92;;;;;;;;;;6252471;28;20029;-70
2023/06/12 01:22:43;;;;;;;3.20;2.90;;;;;;;;;;6250899;28;20119;-68
2023/06/12 01:25:49;;;;;;;5.75;2.95;;;;;;;;;;6260015;28;20057;-67
2023/06/12 01:28:51;;;;;;;3.28;2.97;;;;;;;;;;6261125;28;20501;-67
2023/06/12 01:31:56;;;;;;;4.13;3.25;;;;;;;;;;6260967;28;20422;-68
2023/06/12 01:35:05;;;;;;;3.53;2.95;;;;;;;;;;6249069;28;20013;-68
2023/06/12 01:38:05;;;;;;;3.17;2.85;;;;;;;;;;6249640;28;20028;-67
2023/06/12 01:41:06;;;;;;;3.50;3.20;;;;;;;;;;6252702;28;20034;-68
2023/06/12 01:44:06;;;;;;;;;;;;;;;;;;6250235;28;20032;-69
2023/06/12 01:47:06;;;;;;;2.75;2.55;;;;;;;;;;6260778;28;20371;-69
2023/06/12 01:50:07;;;;;;;3.17;2.80;;;;;;;;;;6246909;28;20016;-68
2023/06/12 01:53:10;;;;;;;3.03;2.50;;;;;;;;;;6249230;28;20017;-67
2023/06/12 01:56:14;;;;;;;3.88;2.95;;;;;;;;;;6255948;28;20111;-68
2023/06/12 01:59:15;;;;;;;3.72;2.95;;;;;;;;;;6253477;28;20053;-68
2023/06/12 02:02:19;;;;;;;3.50;3.05;;;;;;;;;;6021425;28;10000658;-68
2023/06/12 02:05:20;;;;;;;5.40;3.53;;;;;;;;;;6247328;28;20235;-68
2023/06/12 02:08:20;;;;;;;4.80;3.53;;;;;;;;;;6255695;28;20463;-68
2023/06/12 02:11:20;;;;;;;3.27;2.80;;;;;;;;;;6250034;28;20547;-68
2023/06/12 02:14:20;;;;;;;3.87;3.07;;;;;;;;;;6251982;28;20029;-69
2023/06/12 02:17:21;;;;;;;4.73;3.87;;;;;;;;;;6250857;28;20047;-68
2023/06/12 02:20:21;;;;;;;3.60;3.30;;;;;;;;;;6248733;28;20044;-69
2023/06/12 02:23:21;;;;;;;3.53;3.23;;;;;;;;;;6251885;28;20025;-68
2023/06/12 02:26:22;;;;;;;3.53;3.23;;;;;;;;;;6259420;28;20087;-67
2023/06/12 02:29:22;;;;;;;4.47;3.20;;;;;;;;;;6258913;28;20060;-68
2023/06/12 02:32:22;;;;;;;3.90;2.90;;;;;;;;;;6259643;28;20107;-69
2023/06/12 02:35:23;;;;;;;3.63;3.13;;;;;;;;;;6254150;28;20021;-70
2023/06/12 02:38:23;;;;;;;4.03;2.47;;;;;;;;;;6253968;28;20025;-68
2023/06/12 02:41:23;;;;;;;3.67;3.13;;;;;;;;;;6263779;28;20487;-69
2023/06/12 02:44:23;;;;;;;3.73;3.07;;;;;;;;;;6264637;28;20032;-68
2023/06/12 02:47:23;;;;;;;3.30;3.00;;;;;;;;;;6268351;28;20035;-70
2023/06/12 02:50:24;;;;;;;4.83;3.13;;;;;;;;;;6266952;28;20129;-69
2023/06/12 02:53:24;;;;;;;3.93;3.47;;;;;;;;;;6264860;28;20083;-68
2023/06/12 02:56:26;;;;;;;3.07;2.83;;;;;;;;;;6284697;28;20033;-68
2023/06/12 02:59:26;;;;;;;3.95;3.33;;;;;;;;;;6256323;28;20033;-69
2023/06/12 03:02:27;;;;;;;6.30;3.23;;;;;;;;;;6263289;28;20025;-68
2023/06/12 03:05:33;;;;;;;3.45;3.15;;;;;;;;;;6251163;28;20049;-67
2023/06/12 03:08:33;;;;;;;3.58;3.28;;;;;;;;;;6258245;28;20179;-69
2023/06/12 03:11:33;;;;;;;4.13;3.43;;;;;;;;;;6263601;28;20033;-69
2023/06/12 03:14:33;;;;;;;3.53;3.23;;;;;;;;;;6259782;28;20029;-70
2023/06/12 03:17:34;;;;;;;4.60;3.27;;;;;;;;;;6259038;28;20021;-69
2023/06/12 03:20:34;;;;;;;3.80;3.50;;;;;;;;;;6254515;28;20021;-67
2023/06/12 03:23:34;;;;;;;4.32;3.55;;;;;;;;;;6251652;28;20033;-68
2023/06/12 03:26:35;;;;;;;4.53;3.43;;;;;;;;;;6260402;28;20116;-69
2023/06/12 03:29:36;;;;;;;4.15;3.70;;;;;;;;;;6253889;28;20013;-68
2023/06/12 03:32:36;;;;;;;3.90;3.37;;;;;;;;;;6257971;28;20035;-68
2023/06/12 03:35:36;;;;;;;4.10;3.27;;;;;;;;;;6254357;28;20084;-69
2023/06/12 03:38:37;;;;;;;5.53;3.57;;;;;;;;;;6258233;28;20110;-68
2023/06/12 03:41:37;;;;;;;3.67;3.38;;;;;;;;;;6254626;28;20075;-68
2023/06/12 03:44:37;;;;;;;5.70;3.30;;;;;;;;;;6261296;28;20034;-67
2023/06/12 03:47:38;;;;;;;4.07;3.67;;;;;;;;;;6255980;28;20022;-68
2023/06/12 03:50:38;;;;;;;4.43;3.43;;;;;;;;;;6261802;28;20017;-70
2023/06/12 03:53:39;;;;;;;3.60;3.30;;;;;;;;;;6254346;28;20022;-68
2023/06/12 03:56:41;;;;;;;4.40;3.47;;;;;;;;;;6253476;28;20022;-69
2023/06/12 03:59:41;;;;;;;4.10;3.70;;;;;;;;;;6256031;28;20074;-69
2023/06/12 04:02:42;;;;;;;3.63;3.33;;;;;;;;;;6250443;28;20044;-69
2023/06/12 04:05:42;;;;;;;6.13;3.70;;;;;;;;;;6254172;28;20057;-70
2023/06/12 04:08:44;;;;;;;5.77;3.50;;;;;;;;;;6250244;28;20040;-69
2023/06/12 04:11:46;;;;;;;5.07;3.55;;;;;;;;;;6248167;28;20025;-69
2023/06/12 04:14:47;;;;;;;4.32;3.55;;;;;;;;;;6247736;28;20021;-69
2023/06/12 04:17:47;;;;;;;4.00;3.57;;;;;;;;;;6254924;28;20616;-69
2023/06/12 04:20:47;;;;;;;3.97;3.57;;;;;;;;;;6251461;28;20013;-69
2023/06/12 04:23:48;;;;;;;4.00;3.60;;;;;;;;;;6259626;28;20025;-69
2023/06/12 04:26:48;;;;;;;3.97;3.57;;;;;;;;;;6263619;28;20482;-69
2023/06/12 04:29:48;;;;;;;5.28;3.83;;;;;;;;;;6249554;28;20103;-70
2023/06/12 04:32:49;;;;;;;4.57;3.53;;;;;;;;;;6257768;28;20040;-69
2023/06/12 04:35:49;;;;;;;4.83;3.40;;;;;;;;;;6257516;28;20528;-68
2023/06/12 04:38:52;;;;;;;4.07;3.67;;;;;;;;;;6253167;28;20041;-70
2023/06/12 04:41:53;;;;;;;4.00;3.67;;;;;;;;;;6257694;28;20053;-69
2023/06/12 04:44:53;;;;;;;6.90;4.27;;;;;;;;;;6249431;28;20023;-69
2023/06/12 04:47:54;;;;;;;5.00;4.13;;;;;;;;;;6256296;28;20021;-68
2023/06/12 04:50:58;;;;;;;4.38;3.97;;;;;;;;;;6251863;28;20021;-69
2023/06/12 04:54:01;;;;;;;5.50;4.07;;;;;;;;;;6258954;28;20036;-70
2023/06/12 04:57:02;;;;;;;4.85;4.35;;;;;;;;;;6258956;28;20483;-69
2023/06/12 05:00:05;;;;;;;4.53;4.13;;;;;;;;;;6248271;28;20021;-70
2023/06/12 05:03:06;;;;;;;5.68;4.03;;;;;;;;;;6254519;28;20082;-70
2023/06/12 05:06:06;;;;;;;3.77;3.23;;;;;;;;;;6248359;28;20446;-70
2023/06/12 05:09:07;;;;;;;4.03;3.63;;;;;;;;;;6262646;28;20025;-69
2023/06/12 05:12:07;;;;;;;4.07;3.67;;;;;;;;;;6272707;28;20458;-70
2023/06/12 05:15:08;;;;;;;5.10;3.67;;;;;;;;;;6251474;28;20022;-70
2023/06/12 05:18:09;;;;;;;4.60;3.30;;;;;;;;;;6255794;28;20017;-67
2023/06/12 05:21:09;;;;;;;4.80;3.77;;;;;;;;;;6256190;28;20099;-67
2023/06/12 05:24:10;;;;;;;4.82;3.60;;;;;;;;;;6257212;28;20284;-68
2023/06/12 05:27:10;;;;;;;4.50;4.10;;;;;;;;;;6249857;28;20033;-68
2023/06/12 05:30:11;;;;;;;4.27;3.87;;;;;;;;;;6252501;28;20021;-68
2023/06/12 05:33:11;;;;;;;5.32;4.65;;;;;;;;;;6248647;28;20025;-68
2023/06/12 05:36:11;;;;;;;6.80;4.70;;;;;;;;;;6256634;28;20075;-69
2023/06/12 05:39:11;;;;;;;5.83;4.33;;;;;;;;;;6251863;28;20025;-68
2023/06/12 05:42:12;;;;;;;4.93;4.43;;;;;;;;;;6257376;28;20021;-69
2023/06/12 05:45:12;;;;;;;4.63;4.17;;;;;;;;;;6251785;28;20018;-68
2023/06/12 05:48:12;;;;;;;6.23;4.63;;;;;;;;;;6253358;28;20025;-71
2023/06/12 05:51:12;;;;;;;5.83;4.43;;;;;;;;;;6255754;28;20028;-68
2023/06/12 05:54:13;;;;;;;4.60;4.00;;;;;;;;;;6254804;28;20036;-69
2023/06/12 05:57:13;;;;;;;3.93;3.57;;;;;;;;;;6260283;28;20092;-69
2023/06/12 06:00:14;;;;;;;;;;;;;;;;;;6253781;28;20070;-69
2023/06/12 06:03:15;;;;;;;5.13;2.63;;;;;;;;;;6260715;28;20019;-68
2023/06/12 06:06:15;;;;;;;;;;;;;;;;;;6255703;28;20025;-67
2023/06/12 06:09:15;;;;;;;3.30;2.38;;;;;;;;;;6252428;28;19924;-68
2023/06/12 06:12:15;;;;;;;3.17;2.87;;;;;;;;;;6248607;28;20079;-68
2023/06/12 06:15:15;;;;;;;;;;;;;;;;;;6253446;28;20038;-67
2023/06/12 06:18:16;;;;;;;2.80;2.60;;;;;;;;;;6254137;28;19912;-67
2023/06/12 06:21:16;;;;;;;3.00;2.70;;;;;;;;;;6247269;28;20025;-69
2023/06/12 06:24:16;;;;;;;3.27;2.97;;;;;;;;;;6250259;28;20286;-68
2023/06/12 06:27:17;;;;;;;2.97;2.63;;;;;;;;;;6252903;28;20302;-68
2023/06/12 06:30:17;;;;;;;;;;;;;;;;;;6253306;28;20024;-69
2023/06/12 06:33:17;;;;;;;2.85;2.53;;;;;;;;;;6252926;28;19937;-68
2023/06/12 06:36:17;;;;;;;;;;;;;;;;;;6256049;28;20118;-68
2023/06/12 06:39:17;;;;;;;3.47;2.35;;;;;;;;;;6251729;28;19912;-69
2023/06/12 06:42:17;;;;;;;;;;;;;;;;;;6257287;28;20067;-70
2023/06/12 06:45:18;;;;;;;2.80;2.42;;;;;;;;;;6260480;28;19920;-68
2023/06/12 06:48:19;;;;;;;3.03;2.75;;;;;;;;;;6252440;28;20017;-66
2023/06/12 06:51:19;;;;;;;;;;;;;;;;;;6251707;28;20029;-67
2023/06/12 06:54:19;;;;;;;4.13;2.90;;;;;;;;;;6251544;28;19908;-68
2023/06/12 06:57:21;;;;;;;;;;;;;;;;;;6254107;28;20025;-67
2023/06/12 07:00:21;;;;;;;3.20;2.42;;;;;;;;;;6248447;28;20043;-70
2023/06/12 07:03:22;;;;;;;;;;;;;;;;;;6251739;28;20029;-68
2023/06/12 07:06:22;;;;;;;2.90;2.60;;;;;;;;;;6249024;28;19913;-68
2023/06/12 07:09:24;;;;;;;;;;;;;;;;;;6254387;28;20013;-66
2023/06/12 07:12:25;;;;;;;3.97;3.00;;;;;;;;;;6251762;28;19909;-68
2023/06/12 07:15:25;;;;;;;;;;;;;;;;;;6252715;28;20045;-67
2023/06/12 07:18:25;;;;;;;3.20;2.87;;;;;;;;;;6247871;28;19909;-68
2023/06/12 07:21:26;;;;;;;;;;;;;;;;;;6253713;28;20072;-68
2023/06/12 07:24:26;;;;;;;2.77;2.57;;;;;;;;;;6245875;28;19995;-68
2023/06/12 07:27:26;;;;;;;3.07;2.87;;;;;;;;;;6245592;28;20250;-67
2023/06/12 07:30:27;;;;;;;3.45;3.15;;;;;;;;;;6249562;28;20327;-67
2023/06/12 07:33:27;;;;;;;;;;;;;;;;;;6251521;28;20358;-67
2023/06/12 07:36:28;;;;;;;2.95;2.65;;;;;;;;;;6251294;28;19912;-68
2023/06/12 07:39:28;;;;;;;5.45;3.13;;;;;;;;;;6246671;28;20138;-69
2023/06/12 07:42:29;;;;;;;3.42;3.13;;;;;;;;;;6249386;28;20029;-69
2023/06/12 07:45:29;;;;;;;3.63;2.70;;;;;;;;;;6247829;28;20031;-71
2023/06/12 07:48:29;;;;;;;3.05;2.80;;;;;;;;;;6250909;28;22053;-69
2023/06/12 07:51:30;;;;;;;3.10;2.57;;;;;;;;;;6248644;28;20177;-71
2023/06/12 07:54:30;;;;;;;5.40;2.95;;;;;;;;;;6268903;28;21733;-71
2023/06/12 07:57:30;;;;;;;3.03;2.70;;;;;;;;;;6258095;28;20028;-71
2023/06/12 08:00:32;;;;;;;2.97;2.72;;;;;;;;;;6261588;28;20343;-71
2023/06/12 08:03:38;;;;;;;3.72;3.15;;;;;;;;;;6257753;28;20024;-71
2023/06/12 08:06:39;;;;;;;3.40;2.63;;;;;;;;;;6251051;28;20041;-70
2023/06/12 08:09:43;;;;;;;4.03;2.83;;;;;;;;;;6251679;28;20028;-69
2023/06/12 08:12:43;;;;;;;2.78;2.45;;;;;;;;;;6252464;28;20021;-69
2023/06/12 08:15:44;;;;;;;3.20;2.90;;;;;;;;;;6259007;28;20071;-70
2023/06/12 08:18:44;;;;;;;4.90;2.50;;;;;;;;;;6252543;28;20263;-71
2023/06/12 08:21:45;;;;;;;3.00;2.70;;;;;;;;;;6254576;28;20071;-70
2023/06/12 08:24:46;;;;;;;2.97;2.67;;;;;;;;;;6255189;28;20094;-70
2023/06/12 08:27:46;;;;;;;2.40;2.20;;;;;;;;;;6256967;28;20498;-70
2023/06/12 08:30:46;;;;;;;2.47;2.27;;;;;;;;;;6245639;28;20028;-71
2023/06/12 08:33:46;;;;;;;2.60;2.40;;;;;;;;;;6247718;28;20037;-71
2023/06/12 08:36:47;;;;;;;3.03;2.30;;;;;;;;;;6259360;28;20013;-71
2023/06/12 08:39:47;;;;;;;2.50;2.30;;;;;;;;;;6249392;28;20359;-71
2023/06/12 08:42:51;;;;;;;2.60;2.40;;;;;;;;;;6262235;28;20292;-70
2023/06/12 08:45:51;;;;;;;2.75;2.55;;;;;;;;;;6265593;28;20468;-69
2023/06/12 08:48:52;;;;;;;4.07;2.75;;;;;;;;;;6262211;28;20087;-68
2023/06/12 08:51:52;;;;;;;2.42;2.22;;;;;;;;;;6260775;28;20017;-70
2023/06/12 08:54:52;;;;;;;2.75;2.35;;;;;;;;;;6255421;28;20029;-71
2023/06/12 08:57:53;;;;;;;2.67;2.33;;;;;;;;;;6259918;28;20144;-70
2023/06/12 09:00:54;;;;;;;7.70;2.42;;;;;;;;;;6261205;28;20256;-70
2023/06/12 09:03:55;;;;;;;3.17;2.70;;;;;;;;;;6258447;28;20781;-68
2023/06/12 09:07:03;;;;;;;2.70;2.50;;;;;;;;;;6252615;28;20056;-69
2023/06/12 09:10:04;;;;;;;3.15;2.83;;;;;;;;;;6261206;28;20013;-69
2023/06/12 09:13:09;;;;;;;5.40;2.53;;;;;;;;;;6253626;28;20391;-69
2023/06/12 09:16:13;;;;;;;3.08;2.78;;;;;;;;;;6262654;28;20099;-70
2023/06/12 09:19:13;;;;;;;4.50;2.70;;;;;;;;;;6258874;28;20021;-71
2023/06/12 09:22:14;;;;;;;2.70;2.50;;;;;;;;;;6251402;28;20034;-70
2023/06/12 09:25:14;;;;;;;2.90;2.58;;;;;;;;;;6252567;28;20048;-71
2023/06/12 09:28:14;;;;;;;2.80;2.60;;;;;;;;;;6259937;28;20023;-71
2023/06/12 09:31:15;;;;;;;2.70;2.50;;;;;;;;;;6264413;28;20088;-71
2023/06/12 09:34:15;;;;;;;4.87;2.60;;;;;;;;;;6257085;28;20104;-70
2023/06/12 09:37:16;;;;;;;2.80;2.60;;;;;;;;;;6247412;28;20108;-70
2023/06/12 09:40:16;;;;;;;5.70;2.90;;;;;;;;;;6259801;28;20442;-71
2023/06/12 09:43:16;;;;;;;2.93;2.70;;;;;;;;;;6258559;28;20151;-70
2023/06/12 09:46:23;;;;;;;2.83;2.30;;;;;;;;;;6253437;28;20320;-69
2023/06/12 09:49:23;;;;;;;2.65;2.45;;;;;;;;;;6257764;28;20015;-70
2023/06/12 09:52:23;;;;;;;3.30;2.27;;;;;;;;;;6257908;28;20414;-70
2023/06/12 09:55:26;;;;;;;2.42;2.22;;;;;;;;;;6262162;28;20036;-69
2023/06/12 09:58:26;;;;;;;2.22;2.03;;;;;;;;;;6261408;28;20053;-70
2023/06/12 10:01:27;;;;;;;3.97;2.20;;;;;;;;;;6284008;28;20025;-72
2023/06/12 10:04:33;;;;;;;2.55;2.10;;;;;;;;;;6277605;28;20025;-70
2023/06/12 10:07:38;;;;;;;4.20;2.20;;;;;;;;;;6267143;28;20037;-72
2023/06/12 10:10:39;;;;;;;2.90;2.50;;;;;;;;;;6267796;28;20013;-70
2023/06/12 10:13:39;;;;;;;2.88;2.33;;;;;;;;;;6261911;28;20548;-71
2023/06/12 10:16:42;;;;;;;3.17;2.00;;;;;;;;;;6262419;28;20063;-74
2023/06/12 10:19:47;;;;;;;3.15;2.17;;;;;;;;;;6252209;28;20035;-70
2023/06/12 10:22:47;;;;;;;2.83;2.10;;;;;;;;;;6255853;28;20018;-69
2023/06/12 10:25:49;;;;;;;3.67;2.40;;;;;;;;;;6256450;28;20033;-71
2023/06/12 10:28:49;;;;;;;4.05;2.40;;;;;;;;;;6252161;28;20017;-68
2023/06/12 10:31:50;;;;;;;2.17;2.08;;;;;;;;;;6270029;28;20020;-70
2023/06/12 10:34:53;;;;;;;2.80;2.50;;;;;;;;;;6251786;28;20029;-70
2023/06/12 10:37:53;;;;;;;4.35;2.17;;;;;;;;;;6261146;28;20017;-71
2023/06/12 10:40:54;;;;;;;2.30;2.10;;;;;;;;;;6260895;28;20029;-71
2023/06/12 10:43:54;;;;;;;2.30;2.10;;;;;;;;;;6256422;28;20021;-71
2023/06/12 10:46:54;;;;;;;2.50;2.23;;;;;;;;;;6255323;28;20056;-72
2023/06/12 10:49:56;;;;;;;2.20;2.10;;;;;;;;;;6256927;28;20252;-70
2023/06/12 10:52:57;;;;;;;2.67;2.47;;;;;;;;;;6260238;28;20268;-71
2023/06/12 10:56:04;;;;;;;2.33;2.13;;;;;;;;;;6251246;28;20051;-71
2023/06/12 10:59:04;;;;;;;2.75;2.05;;;;;;;;;;6251973;28;20029;-71
2023/06/12 11:02:05;;;;;;;2.60;2.40;;;;;;;;;;6253831;28;20029;-72
2023/06/12 11:05:05;;;;;;;2.40;2.20;;;;;;;;;;6261111;28;20024;-71
2023/06/12 11:08:06;;;;;;;2.55;2.10;;;;;;;;;;6254081;28;20013;-68
2023/06/12 11:11:07;;;;;;;3.03;2.33;;;;;;;;;;6249060;28;20009;-70
2023/06/12 11:14:07;;;;;;;2.25;2.05;;;;;;;;;;6249896;28;20048;-71
2023/06/12 11:17:08;;;;;;;2.33;2.20;;;;;;;;;;6258563;28;20134;-72
2023/06/12 11:20:09;;;;;;;2.53;2.30;;;;;;;;;;6251727;28;20029;-71
2023/06/12 11:23:09;;;;;;;2.33;2.13;;;;;;;;;;6258386;28;20029;-72
2023/06/12 11:26:10;;;;;;;1.90;1.80;;;;;;;;;;6250405;28;20087;-72
2023/06/12 11:29:16;;;;;;;4.53;3.13;;;;;;;;;;6248162;28;20438;-72
2023/06/12 11:32:17;;;;;;;3.70;3.40;;;;;;;;;;6258447;28;20017;-71
2023/06/12 11:35:17;;;;;;;3.10;2.80;;;;;;;;;;6248879;28;20483;-73
2023/06/12 11:38:19;;;;;;;3.67;2.33;;;;;;;;;;6246175;28;20037;-71
2023/06/12 11:41:19;;;;;;;4.28;3.45;;;;;;;;;;6247968;28;20053;-72
2023/06/12 11:44:20;;;;;;;5.33;2.80;;;;;;;;;;6248141;28;20025;-71
2023/06/12 11:47:20;;;;;;;3.05;2.72;;;;;;;;;;6248434;28;20055;-71
2023/06/12 11:50:22;;;;;;;3.37;2.63;;;;;;;;;;6246747;28;20682;-70
2023/06/12 11:53:23;;;;;;;2.60;2.40;;;;;;;;;;6248015;28;20032;-70
2023/06/12 11:56:23;;;;;;;2.73;2.40;;;;;;;;;;6250379;28;20025;-71
2023/06/12 11:59:33;;;;;;;2.30;2.10;;;;;;;;;;6253557;28;20104;-69
2023/06/12 12:02:38;;;;;;;2.70;2.08;;;;;;;;;;6250230;28;20405;-71
2023/06/12 12:05:39;;;;;;;2.28;2.13;;;;;;;;;;6254042;28;21484;-70
2023/06/12 12:08:40;;;;;;;2.67;2.23;;;;;;;;;;6243467;28;20028;-70
2023/06/12 12:11:40;;;;;;;2.38;1.85;;;;;;;;;;6253459;28;20456;-69
2023/06/12 12:14:49;;;;;;;2.08;1.70;;;;;;;;;;5896466;28;9999871;-70
2023/06/12 12:17:51;;;;;;;2.13;1.92;;;;;;;;;;6245678;28;20104;-71
2023/06/12 12:20:52;;;;;;;3.42;2.10;;;;;;;;;;6247421;28;20036;-70
2023/06/12 12:23:53;;;;;;;2.20;2.00;;;;;;;;;;6246487;28;20025;-72
2023/06/12 12:26:53;;;;;;;2.30;2.10;;;;;;;;;;6242608;28;20029;-72
2023/06/12 12:29:53;;;;;;;4.10;1.88;;;;;;;;;;6245843;28;20124;-70
2023/06/12 12:32:55;;;;;;;2.17;1.97;;;;;;;;;;6245819;28;20064;-71
2023/06/12 12:35:57;;;;;;;2.08;1.98;;;;;;;;;;6250635;28;20624;-70
2023/06/12 12:38:58;;;;;;;1.90;1.80;;;;;;;;;;6249346;28;20066;-72
2023/06/12 12:41:58;;;;;;;2.00;1.80;;;;;;;;;;6249541;28;20076;-72
2023/06/12 12:44:58;;;;;;;3.00;1.80;;;;;;;;;;6249669;28;20108;-73
2023/06/12 12:47:59;;;;;;;2.20;1.83;;;;;;;;;;6254685;28;20060;-72
2023/06/12 12:51:00;;;;;;;1.83;1.73;;;;;;;;;;6249701;28;20568;-72
2023/06/12 12:54:00;;;;;;;2.20;2.00;;;;;;;;;;6254203;28;20017;-72
2023/06/12 12:57:00;;;;;;;2.05;1.85;;;;;;;;;;6247863;28;20387;-71
2023/06/12 13:00:05;;;;;;;3.00;2.00;;;;;;;;;;6255974;28;20010;-72
2023/06/12 13:03:06;;;;;;;3.05;2.40;;;;;;;;;;6252829;28;20032;-72
2023/06/12 13:06:07;;;;;;;1.93;1.83;;;;;;;;;;6251273;28;20068;-73
2023/06/12 13:09:07;;;;;;;2.20;2.10;;;;;;;;;;6255377;28;20107;-73
2023/06/12 13:12:09;;;;;;;2.10;2.00;;;;;;;;;;6249357;28;20213;-72
2023/06/12 13:15:09;;;;;;;2.28;2.17;;;;;;;;;;6247534;28;20024;-73
2023/06/12 13:18:09;;;;;;;2.35;2.15;;;;;;;;;;6252022;28;20159;-73
2023/06/12 13:21:10;;;;;;;2.40;2.30;;;;;;;;;;6251722;28;20116;-73
2023/06/12 13:24:10;;;;;;;2.60;2.40;;;;;;;;;;6252953;28;20090;-73
2023/06/12 13:27:10;;;;;;;2.45;2.25;;;;;;;;;;6253120;28;20028;-73
2023/06/12 13:30:11;;;;;;;3.23;2.40;;;;;;;;;;6252224;28;20104;-73
2023/06/12 13:33:11;;;;;;;2.55;2.30;;;;;;;;;;6248876;28;20513;-72
2023/06/12 13:36:12;;;;;;;1.80;1.70;;;;;;;;;;6250131;28;20159;-71
2023/06/12 13:39:13;;;;;;;2.10;2.00;;;;;;;;;;6251807;28;20455;-72
2023/06/12 13:42:13;;;;;;;2.13;1.92;;;;;;;;;;6253461;28;20549;-71
2023/06/12 13:45:13;;;;;;;2.20;2.00;;;;;;;;;;6246931;28;20036;-72
2023/06/12 13:48:15;;;;;;;2.20;2.00;;;;;;;;;;6248388;28;20482;-72
2023/06/12 13:51:15;;;;;;;2.78;2.05;;;;;;;;;;6250259;28;20275;-72
2023/06/12 13:54:15;;;;;;;1.73;1.63;;;;;;;;;;6248899;28;20028;-70
2023/06/12 13:57:16;;;;;;;3.63;1.47;;;;;;;;;;6250760;28;20021;-70
2023/06/12 14:00:16;;;;;;;1.70;1.60;;;;;;;;;;6250877;28;20096;-71
2023/06/12 14:03:16;;;;;;;1.73;1.60;;;;;;;;;;6244884;28;20013;-72
2023/06/12 14:06:17;;;;;;;2.97;2.20;;;;;;;;;;6251967;28;20082;-70
2023/06/12 14:09:17;;;;;;;1.80;1.70;;;;;;;;;;6252671;28;20044;-70
2023/06/12 14:12:18;;;;;;;1.75;1.50;;;;;;;;;;6255582;28;20111;-70
2023/06/12 14:15:19;;;;;;;1.90;1.60;;;;;;;;;;6254321;28;20383;-70
2023/06/12 14:18:19;;;;;;;1.90;1.60;;;;;;;;;;6249806;28;20021;-70
2023/06/12 14:21:20;;;;;;;1.70;1.60;;;;;;;;;;6250075;28;20337;-72
2023/06/12 14:24:20;;;;;;;1.60;1.50;;;;;;;;;;6251844;28;20302;-72
2023/06/12 14:27:20;;;;;;;2.43;1.80;;;;;;;;;;6255432;28;20021;-72
2023/06/12 14:30:21;;;;;;;2.20;1.97;;;;;;;;;;6252187;28;20028;-70
2023/06/12 14:33:21;;;;;;;2.57;1.93;;;;;;;;;;6249200;28;20052;-70
2023/06/12 14:36:21;;;;;;;2.10;2.00;;;;;;;;;;6253011;28;20029;-69
2023/06/12 14:39:21;;;;;;;2.50;2.07;;;;;;;;;;6248913;28;20505;-72
2023/06/12 14:42:22;;;;;;;2.67;1.87;;;;;;;;;;6249693;28;20355;-69
2023/06/12 14:45:22;;;;;;;3.30;2.10;;;;;;;;;;6252724;28;20032;-74
2023/06/12 14:48:24;;;;;;;1.92;1.83;;;;;;;;;;6251174;28;20054;-69
2023/06/12 14:51:24;;;;;;;1.97;1.87;;;;;;;;;;6246295;28;20465;-69
2023/06/12 14:54:24;;;;;;;2.50;1.87;;;;;;;;;;6252464;28;20025;-69
2023/06/12 14:57:24;;;;;;;1.63;1.48;;;;;;;;;;6247226;28;20029;-69
2023/06/12 15:00:25;;;;;;;1.67;1.57;;;;;;;;;;6251978;28;20446;-68
2023/06/12 15:03:25;;;;;;;2.37;1.80;;;;;;;;;;6241945;28;20074;-69
2023/06/12 15:06:25;;;;;;;3.83;1.73;;;;;;;;;;6244945;28;20194;-71
2023/06/12 15:09:26;;;;;;;2.03;1.83;;;;;;;;;;6248389;28;20029;-70
2023/06/12 15:12:26;;;;;;;3.80;2.07;;;;;;;;;;6253081;28;20028;-71
2023/06/12 15:15:26;;;;;;;1.83;1.73;;;;;;;;;;6244485;28;20096;-70
2023/06/12 15:18:26;;;;;;;1.60;1.50;;;;;;;;;;6252405;28;20036;-69
2023/06/12 15:21:27;;;;;;;1.97;1.70;;;;;;;;;;6245564;28;20037;-69
2023/06/12 15:24:27;;;;;;;1.77;1.67;;;;;;;;;;6245615;28;20021;-69
2023/06/12 15:27:27;;;;;;;1.70;1.50;;;;;;;;;;6252485;28;20530;-69
2023/06/12 15:30:27;;;;;;;1.87;1.40;;;;;;;;;;6247270;28;20017;-69
2023/06/12 15:33:27;;;;;;;2.20;1.33;;;;;;;;;;6248752;28;20021;-69
2023/06/12 15:36:28;;;;;;;3.90;1.67;;;;;;;;;;6247137;28;20326;-68
2023/06/12 15:39:28;;;;;;;1.47;1.37;;;;;;;;;;6245389;28;20394;-69
2023/06/12 15:42:28;;;;;;;2.53;1.50;;;;;;;;;;6255080;28;20431;-67
2023/06/12 15:45:28;;;;;;;1.20;1.10;;;;;;;;;;6249210;28;20279;-68
2023/06/12 15:48:29;;;;;;;2.20;1.53;;;;;;;;;;6241784;28;20026;-68
2023/06/12 15:51:29;;;;;;;2.00;1.70;;;;;;;;;;6248467;28;20111;-69
2023/06/12 15:54:30;;;;;;;2.00;1.80;;;;;;;;;;6245113;28;20555;-68
2023/06/12 15:57:30;;;;;;;1.67;1.33;;;;;;;;;;6248693;28;20029;-69
2023/06/12 16:00:30;;;;;;;2.90;1.70;;;;;;;;;;6252024;28;20068;-70
2023/06/12 16:03:31;;;;;;;3.83;1.40;;;;;;;;;;6250925;28;20024;-68
2023/06/12 16:06:31;;;;;;;1.85;1.58;;;;;;;;;;6254620;28;20370;-69
2023/06/12 16:09:31;;;;;;;1.20;1.10;;;;;;;;;;6245713;28;20147;-68
2023/06/12 16:12:32;;;;;;;2.17;1.58;;;;;;;;;;6251427;28;20513;-69
2023/06/12 16:15:32;;;;;;;3.60;1.40;;;;;;;;;;6257165;28;20024;-69
2023/06/12 16:18:32;;;;;;;4.43;1.63;;;;;;;;;;6253389;28;20068;-69
2023/06/12 16:21:33;;;;;;;2.77;1.60;;;;;;;;;;6248725;28;20878;-69
2023/06/12 16:24:34;;;;;;;2.40;1.90;;;;;;;;;;6246737;28;20696;-70
2023/06/12 16:27:34;;;;;;;1.88;1.63;;;;;;;;;;6248675;28;20059;-70
2023/06/12 16:30:34;;;;;;;1.90;1.37;;;;;;;;;;6247828;28;20044;-70
2023/06/12 16:33:36;;;;;;;2.47;1.30;;;;;;;;;;6256449;28;20295;-70
2023/06/12 16:36:36;;;;;;;2.40;1.40;;;;;;;;;;6255672;28;20032;-70
2023/06/12 16:39:38;;;;;;;2.05;1.48;;;;;;;;;;6255139;28;20036;-70
2023/06/12 16:42:38;;;;;;;2.88;1.40;;;;;;;;;;6255603;28;20023;-70
2023/06/12 16:45:39;;;;;;;4.72;1.55;;;;;;;;;;6255007;28;20431;-70
2023/06/12 16:48:40;;;;;;;2.53;1.52;;;;;;;;;;6259222;28;20040;-72
2023/06/12 16:51:40;;;;;;;2.60;1.75;;;;;;;;;;6258724;28;20044;-71
2023/06/12 16:54:40;;;;;;;2.93;1.33;;;;;;;;;;6256680;28;20386;-68
2023/06/12 16:57:40;;;;;;;2.17;1.30;;;;;;;;;;6250595;28;20387;-69
2023/06/12 17:00:41;;;;;;;1.60;1.30;;;;;;;;;;6255352;28;20036;-70
2023/06/12 17:03:41;;;;;;;2.67;1.38;;;;;;;;;;6255396;28;21648;-72
2023/06/12 17:06:41;;;;;;;1.63;1.37;;;;;;;;;;6249773;28;20036;-72
2023/06/12 17:09:41;;;;;;;2.38;1.20;;;;;;;;;;6247317;28;20104;-71
2023/06/12 17:12:42;;;;;;;1.40;1.30;;;;;;;;;;6251526;28;20155;-70
2023/06/12 17:15:42;;;;;;;2.93;1.20;;;;;;;;;;6248597;28;20432;-71
2023/06/12 17:18:42;;;;;;;1.50;1.27;;;;;;;;;;6254758;28;20080;-71
2023/06/12 17:21:44;;;;;;;1.40;1.27;;;;;;;;;;6255525;28;20271;-71
2023/06/12 17:24:45;;;;;;;1.20;1.10;;;;;;;;;;6246357;28;20021;-70
2023/06/12 17:27:45;;;;;;;2.78;1.25;;;;;;;;;;6249108;28;20028;-69
2023/06/12 17:30:46;;;;;;;3.17;1.30;;;;;;;;;;6246897;28;20393;-71
2023/06/12 17:33:46;;;;;;;1.35;1.13;;;;;;;;;;6253118;28;20287;-69
2023/06/12 17:36:46;;;;;;;3.92;1.30;;;;;;;;;;6246183;28;20075;-70
2023/06/12 17:39:46;;;;;;;3.08;1.50;;;;;;;;;;6249885;28;20079;-70
2023/06/12 17:42:47;;;;;;;2.53;1.40;;;;;;;;;;6245665;28;20384;-69
2023/06/12 17:45:47;;;;;;;1.90;1.70;;;;;;;;;;6252468;28;20740;-69
2023/06/12 17:48:47;;;;;;;4.95;1.65;;;;;;;;;;6250798;28;20025;-69
2023/06/12 17:51:48;;;;;;;2.20;1.45;;;;;;;;;;6250124;28;20031;-69
2023/06/12 17:54:48;;;;;;;2.60;1.40;;;;;;;;;;6248416;28;20025;-67
2023/06/12 17:57:48;;;;;;;1.97;1.20;;;;;;;;;;6250233;28;20072;-72
2023/06/12 18:00:48;;;;;;;1.50;1.13;;;;;;;;;;6247722;28;20374;-69
2023/06/12 18:03:49;;;;;;;1.67;1.40;;;;;;;;;;6249971;28;20370;-66
2023/06/12 18:06:49;;;;;;;3.05;1.63;;;;;;;;;;6244922;28;20028;-70
2023/06/12 18:09:49;;;;;;;2.20;1.25;;;;;;;;;;6251545;28;20041;-69